Time;durP1;ratioP1;P1;durP2;ratioP2;P2;SDS_P1;SDS_P2;PMS_P1;PMS_P2;Temp;Humidity;BMP_temperature;BMP_pressure;BME280_temperature;BME280_humidity;BME280_pressure;Samples;Min_cycle;Max_cycle;Signal;HPM_P1;HPM_P2
2021/12/06 00:02:02;;;;;;;41.73;27.63;;;2.00;99.90;;;;;;5016524;28;20354;-38
2021/12/06 00:04:32;;;;;;;40.80;26.07;;;2.00;99.90;;;;;;4993787;28;20049;-38
2021/12/06 00:07:01;;;;;;;43.70;27.50;;;2.00;99.90;;;;;;4987489;28;20405;-39
2021/12/06 00:09:28;;;;;;;43.03;27.40;;;2.10;99.90;;;;;;5005198;28;20046;-39
2021/12/06 00:11:59;;;;;;;44.10;28.33;;;2.10;99.90;;;;;;5003921;28;20054;-39
2021/12/06 00:14:31;;;;;;;32.25;21.08;;;2.10;99.90;;;;;;4999710;28;20096;-39
2021/12/06 00:16:59;;;;;;;42.03;26.47;;;2.00;99.90;;;;;;4987014;28;20137;-39
2021/12/06 00:19:26;;;;;;;41.50;27.77;;;2.00;99.90;;;;;;4997951;28;20050;-39
2021/12/06 00:21:52;;;;;;;43.57;28.60;;;2.00;99.90;;;;;;5001312;28;20115;-39
2021/12/06 00:24:18;;;;;;;41.97;27.97;;;2.10;99.90;;;;;;5000217;28;20057;-38
2021/12/06 00:26:44;;;;;;;44.47;27.93;;;2.10;99.90;;;;;;4991088;28;20046;-39
2021/12/06 00:29:10;;;;;;;41.20;27.77;;;2.10;99.90;;;;;;4999038;28;20124;-38
2021/12/06 00:31:37;;;;;;;46.00;27.87;;;2.10;99.90;;;;;;5001879;28;20054;-39
2021/12/06 00:34:09;;;;;;;40.07;27.67;;;2.10;99.90;;;;;;4998247;28;20049;-40
2021/12/06 00:36:38;;;;;;;40.90;27.53;;;2.10;99.90;;;;;;4989788;28;20495;-39
2021/12/06 00:39:07;;;;;;;43.17;27.50;;;2.10;99.90;;;;;;4998499;28;20041;-37
2021/12/06 00:41:34;;;;;;;44.33;27.67;;;2.10;99.90;;;;;;4998828;28;20045;-39
2021/12/06 00:44:01;;;;;;;44.77;27.97;;;2.10;99.90;;;;;;4996689;28;20035;-40
2021/12/06 00:46:27;;;;;;;44.60;28.43;;;2.10;99.90;;;;;;4987440;28;20486;-38
2021/12/06 00:48:53;;;;;;;40.27;27.20;;;2.10;99.90;;;;;;4996494;28;20048;-39
2021/12/06 00:51:19;;;;;;;41.67;27.27;;;2.10;99.90;;;;;;4995267;28;20053;-39
2021/12/06 00:53:45;;;;;;;42.53;27.63;;;2.10;99.90;;;;;;4995813;28;20041;-39
2021/12/06 00:56:12;;;;;;;42.63;27.87;;;2.10;99.90;;;;;;4986173;28;20056;-39
2021/12/06 00:58:38;;;;;;;44.27;27.37;;;2.10;99.90;;;;;;4995436;28;20657;-39
2021/12/06 01:01:05;;;;;;;44.87;28.40;;;2.10;99.90;;;;;;4997531;28;20050;-38
2021/12/06 01:03:34;;;;;;;44.63;28.47;;;2.10;99.90;;;;;;4992537;28;20078;-38
2021/12/06 01:06:00;;;;;;;45.53;28.83;;;2.10;99.90;;;;;;4994663;28;20042;-39
2021/12/06 01:08:25;;;;;;;42.77;27.50;;;2.10;99.90;;;;;;4982485;28;20112;-40
2021/12/06 01:10:52;;;;;;;41.63;28.23;;;2.10;99.90;;;;;;4995359;28;20528;-39
2021/12/06 01:13:21;;;;;;;40.67;27.47;;;2.10;99.90;;;;;;5005774;28;20038;-40
2021/12/06 01:15:46;;;;;;;45.43;29.57;;;2.00;99.90;;;;;;5015446;28;20041;-38
2021/12/06 01:18:15;;;;;;;45.27;29.73;;;2.10;99.90;;;;;;5004100;28;20447;-38
2021/12/06 01:20:50;;;;;;;46.17;28.43;;;2.00;99.90;;;;;;5014489;28;20410;-39
2021/12/06 01:23:21;;;;;;;44.07;29.33;;;2.10;99.90;;;;;;5015055;28;20054;-38
2021/12/06 01:26:09;;;;;;;32.83;21.43;;;2.10;99.90;;;;;;5013199;28;20041;-39
2021/12/06 01:31:10;;;;;;;44.20;28.47;;;2.10;99.90;;;;;;5014149;28;20397;-39
2021/12/06 01:34:03;;;;;;;40.43;27.20;;;2.10;99.90;;;;;;5007950;28;20140;-38
2021/12/06 01:39:14;;;;;;;41.27;27.53;;;2.10;99.90;;;;;;5004028;28;20115;-39
2021/12/06 01:41:51;;;;;;;41.33;28.07;;;2.10;99.90;;;;;;5004005;28;20126;-39
2021/12/06 01:44:29;;;;;;;46.20;29.43;;;2.10;99.90;;;;;;5016856;28;20058;-38
2021/12/06 01:46:59;;;;;;;44.53;29.67;;;2.10;99.90;;;;;;5005242;28;20124;-39
2021/12/06 01:49:28;;;;;;;45.17;29.23;;;2.00;99.90;;;;;;5002934;28;20040;-38
2021/12/06 01:51:56;;;;;;;43.67;30.07;;;2.10;99.90;;;;;;5004514;28;20501;-39
2021/12/06 01:54:22;;;;;;;45.13;29.50;;;2.10;99.90;;;;;;5003499;28;20463;-39
2021/12/06 01:56:49;;;;;;;47.57;29.77;;;2.10;99.90;;;;;;4992856;28;20042;-39
2021/12/06 01:59:16;;;;;;;47.13;30.10;;;2.10;99.90;;;;;;4996661;28;20364;-39
2021/12/06 02:01:43;;;;;;;47.80;30.10;;;2.10;99.90;;;;;;4995679;28;20042;-39
2021/12/06 02:04:09;;;;;;;47.80;30.57;;;2.10;99.90;;;;;;4995381;28;20509;-39
2021/12/06 02:06:37;;;;;;;44.23;30.80;;;2.10;99.90;;;;;;4986612;28;20038;-39
2021/12/06 02:09:06;;;;;;;52.23;30.53;;;2.10;99.90;;;;;;4994368;28;20046;-39
2021/12/06 02:11:35;;;;;;;50.27;31.30;;;2.10;99.90;;;;;;4998658;28;20046;-38
2021/12/06 02:14:16;;;;;;;48.20;30.80;;;2.00;99.90;;;;;;5001416;28;20050;-40
2021/12/06 02:16:58;;;;;;;50.67;32.10;;;2.00;99.90;;;;;;4987925;28;20046;-38
2021/12/06 02:19:30;;;;;;;;;;;2.00;99.90;;;;;;4999160;28;20089;-40
2021/12/06 02:21:56;;;;;;;54.70;33.07;;;2.00;99.90;;;;;;4998321;28;20722;-39
2021/12/06 02:24:22;;;;;;;53.80;33.57;;;2.00;99.90;;;;;;4995967;28;20078;-38
2021/12/06 02:26:48;;;;;;;51.83;32.20;;;2.00;99.90;;;;;;4986800;28;20037;-37
2021/12/06 02:29:14;;;;;;;54.67;32.90;;;2.00;99.90;;;;;;4995447;28;20089;-38
2021/12/06 02:31:40;;;;;;;53.97;32.67;;;2.00;99.90;;;;;;4995995;28;20195;-39
2021/12/06 02:34:06;;;;;;;54.73;32.87;;;2.00;99.90;;;;;;4995503;28;20054;-38
2021/12/06 02:36:32;;;;;;;52.07;32.83;;;2.00;99.90;;;;;;4983584;28;20081;-38
2021/12/06 02:38:59;;;;;;;54.47;33.23;;;2.00;99.90;;;;;;4994735;28;20069;-38
2021/12/06 02:41:25;;;;;;;56.27;32.97;;;2.00;99.90;;;;;;4993158;28;20490;-38
2021/12/06 02:43:52;;;;;;;52.17;32.57;;;2.00;99.90;;;;;;4995616;28;20056;-38
2021/12/06 02:46:19;;;;;;;52.13;31.87;;;2.00;99.90;;;;;;4981305;28;20532;-39
2021/12/06 02:48:46;;;;;;;51.70;32.17;;;2.00;99.90;;;;;;4993820;28;20403;-39
2021/12/06 02:51:14;;;;;;;51.70;31.87;;;2.00;99.90;;;;;;4983300;28;20088;-38
2021/12/06 02:53:40;;;;;;;53.67;32.50;;;2.00;99.90;;;;;;4996237;28;20060;-39
2021/12/06 02:56:28;;;;;;;56.80;32.57;;;2.00;99.90;;;;;;4986793;28;20043;-39
2021/12/06 02:58:56;;;;;;;55.97;31.80;;;2.00;99.90;;;;;;4992326;28;20351;-39
2021/12/06 03:01:47;;;;;;;53.93;32.43;;;2.00;99.90;;;;;;5001502;28;20046;-37
2021/12/06 03:04:13;;;;;;;42.90;24.57;;;2.00;99.90;;;;;;4990181;28;20598;-38
2021/12/06 03:06:41;;;;;;;56.63;33.27;;;2.00;99.90;;;;;;4982065;28;20358;-36
2021/12/06 03:09:13;;;;;;;57.60;32.40;;;2.00;99.90;;;;;;4988837;28;20573;-39
2021/12/06 03:11:45;;;;;;;60.67;33.50;;;2.00;99.90;;;;;;4993391;28;20046;-38
2021/12/06 03:14:14;;;;;;;58.27;34.37;;;2.10;99.90;;;;;;5030766;28;20429;-40
2021/12/06 03:16:41;;;;;;;61.60;36.03;;;2.10;99.90;;;;;;4986017;28;20168;-39
2021/12/06 03:19:07;;;;;;;63.53;36.43;;;2.10;99.90;;;;;;5003251;28;20053;-37
2021/12/06 03:21:33;;;;;;;67.83;35.83;;;2.00;99.90;;;;;;5010141;28;20182;-36
2021/12/06 03:24:00;;;;;;;65.37;35.40;;;2.00;99.90;;;;;;5043384;28;20050;-37
2021/12/06 03:26:27;;;;;;;63.60;35.97;;;2.00;99.90;;;;;;5005177;28;20713;-36
2021/12/06 03:28:54;;;;;;;60.67;35.80;;;2.00;99.90;;;;;;5005841;28;20049;-36
2021/12/06 03:31:21;;;;;;;56.50;34.63;;;2.00;99.90;;;;;;5001793;28;20037;-35
2021/12/06 03:33:49;;;;;;;61.00;35.50;;;2.00;99.90;;;;;;5011289;28;20190;-37
2021/12/06 03:36:17;;;;;;;61.63;34.80;;;2.00;99.90;;;;;;5004823;28;20053;-37
2021/12/06 03:38:44;;;;;;;65.93;37.10;;;2.00;99.90;;;;;;5016732;28;20045;-36
2021/12/06 03:41:11;;;;;;;64.23;35.90;;;2.00;99.90;;;;;;5016134;28;20056;-37
2021/12/06 03:43:39;;;;;;;65.77;36.20;;;2.10;99.90;;;;;;5016256;28;20330;-37
2021/12/06 03:46:05;;;;;;;63.17;35.43;;;2.10;99.90;;;;;;5018391;28;20048;-37
2021/12/06 03:48:31;;;;;;;64.63;35.93;;;2.10;99.90;;;;;;5002576;28;20505;-36
2021/12/06 03:50:58;;;;;;;61.37;34.23;;;2.10;99.90;;;;;;5005216;28;20050;-37
2021/12/06 03:53:23;;;;;;;67.37;36.07;;;2.10;99.90;;;;;;5043367;28;20045;-36
2021/12/06 03:55:49;;;;;;;62.37;35.23;;;2.10;99.90;;;;;;5017209;28;20443;-35
2021/12/06 03:58:15;;;;;;;59.53;35.33;;;2.10;99.90;;;;;;4997327;28;20054;-37
2021/12/06 04:00:41;;;;;;;59.20;34.80;;;2.10;99.90;;;;;;5000104;28;20081;-37
2021/12/06 04:03:08;;;;;;;65.97;36.30;;;2.10;99.90;;;;;;5001165;28;20108;-37
2021/12/06 04:05:34;;;;;;;62.10;34.80;;;2.00;99.90;;;;;;5000702;28;20643;-34
2021/12/06 04:07:59;;;;;;;65.23;36.67;;;2.00;99.90;;;;;;5028728;28;20045;-38
2021/12/06 04:10:26;;;;;;;61.50;35.57;;;2.10;99.90;;;;;;5017886;28;20046;-35
2021/12/06 04:12:55;;;;;;;65.07;37.53;;;2.10;99.90;;;;;;5009688;28;20073;-37
2021/12/06 04:15:22;;;;;;;62.60;35.40;;;2.10;99.90;;;;;;4998747;28;20052;-36
2021/12/06 04:17:48;;;;;;;62.70;34.77;;;2.10;99.90;;;;;;4987639;28;20073;-37
2021/12/06 04:20:14;;;;;;;61.70;35.17;;;2.10;99.90;;;;;;4997570;28;20088;-37
2021/12/06 04:22:41;;;;;;;68.17;36.77;;;2.10;99.90;;;;;;5000836;28;20050;-37
2021/12/06 04:25:11;;;;;;;62.67;36.93;;;2.10;99.90;;;;;;4998009;28;20046;-34
2021/12/06 04:27:38;;;;;;;66.70;37.10;;;2.10;99.90;;;;;;4986977;28;20618;-37
2021/12/06 04:30:06;;;;;;;65.30;37.30;;;2.10;99.90;;;;;;5003789;28;20038;-37
2021/12/06 04:32:32;;;;;;;61.47;36.63;;;2.10;99.90;;;;;;4997685;28;20050;-36
2021/12/06 04:34:58;;;;;;;61.57;35.17;;;2.10;99.90;;;;;;4996491;28;20053;-37
2021/12/06 04:37:24;;;;;;;64.03;35.57;;;2.10;99.90;;;;;;5020078;28;20042;-37
2021/12/06 04:39:50;;;;;;;63.67;37.77;;;2.10;99.90;;;;;;4996503;28;20061;-37
2021/12/06 04:42:18;;;;;;;64.10;34.20;;;2.10;99.90;;;;;;4997377;28;20092;-37
2021/12/06 04:44:44;;;;;;;65.37;35.53;;;2.10;99.90;;;;;;4997253;28;20124;-36
2021/12/06 04:47:10;;;;;;;62.93;35.70;;;2.10;99.90;;;;;;4982754;28;20125;-36
2021/12/06 04:49:36;;;;;;;60.93;33.67;;;2.10;99.90;;;;;;4993491;28;20756;-36
2021/12/06 04:52:05;;;;;;;57.83;34.83;;;2.10;99.90;;;;;;5034553;28;20046;-38
2021/12/06 04:54:43;;;;;;;54.53;32.53;;;2.20;99.90;;;;;;4987707;28;20098;-36
2021/12/06 04:57:32;;;;;;;61.73;34.17;;;2.10;99.90;;;;;;4982880;28;20120;-37
2021/12/06 05:00:05;;;;;;;62.37;35.40;;;2.10;99.90;;;;;;5031455;28;20099;-37
2021/12/06 05:02:34;;;;;;;62.53;35.37;;;2.10;99.90;;;;;;5015567;28;20050;-37
2021/12/06 05:05:07;;;;;;;64.00;36.57;;;2.10;99.90;;;;;;5013296;28;20134;-37
2021/12/06 05:07:39;;;;;;;64.60;35.93;;;2.10;99.90;;;;;;4999764;28;20050;-35
2021/12/06 05:10:07;;;;;;;68.60;37.03;;;2.10;99.90;;;;;;5005663;28;20143;-37
2021/12/06 05:12:33;;;;;;;70.00;36.70;;;2.10;99.90;;;;;;5006566;28;20045;-38
2021/12/06 05:15:00;;;;;;;70.53;37.83;;;2.10;99.90;;;;;;5012556;28;20054;-37
2021/12/06 05:17:28;;;;;;;64.87;37.20;;;2.10;99.90;;;;;;5006381;28;20060;-35
2021/12/06 05:19:54;;;;;;;72.77;38.13;;;2.10;99.90;;;;;;5017950;28;20101;-36
2021/12/06 05:22:21;;;;;;;72.93;38.60;;;2.10;99.90;;;;;;5018073;28;20112;-36
2021/12/06 05:24:47;;;;;;;71.77;37.80;;;2.10;99.90;;;;;;5018493;28;20049;-37
2021/12/06 05:27:13;;;;;;;75.40;39.23;;;2.10;99.90;;;;;;5006678;28;20456;-37
2021/12/06 05:29:43;;;;;;;72.90;38.63;;;2.10;99.90;;;;;;5006037;28;20448;-36
2021/12/06 05:32:09;;;;;;;70.75;38.58;;;2.10;99.90;;;;;;5017054;28;20061;-36
2021/12/06 05:34:39;;;;;;;72.80;38.67;;;2.10;99.90;;;;;;5003300;28;20042;-38
2021/12/06 05:37:07;;;;;;;73.67;39.40;;;2.20;99.90;;;;;;4993191;28;20054;-37
2021/12/06 05:39:33;;;;;;;77.77;39.93;;;2.20;99.90;;;;;;5003717;28;20129;-37
2021/12/06 05:42:01;;;;;;;73.60;40.30;;;2.20;99.90;;;;;;5004810;28;20156;-36
2021/12/06 05:44:28;;;;;;;76.07;41.20;;;2.20;99.90;;;;;;5015141;28;20514;-37
2021/12/06 05:46:54;;;;;;;73.23;39.90;;;2.20;99.90;;;;;;5001650;28;20114;-37
2021/12/06 05:49:21;;;;;;;78.43;39.67;;;2.20;99.90;;;;;;5013894;28;20041;-36
2021/12/06 05:51:47;;;;;;;80.60;40.00;;;2.20;99.90;;;;;;5015601;28;20053;-35
2021/12/06 05:54:12;;;;;;;85.97;41.93;;;2.20;99.90;;;;;;5003279;28;20057;-34
2021/12/06 05:56:38;;;;;;;80.57;41.07;;;2.20;99.90;;;;;;4988856;28;20370;-37
2021/12/06 05:59:04;;;;;;;86.80;42.10;;;2.20;99.90;;;;;;4998905;28;20511;-35
2021/12/06 06:01:30;;;;;;;86.10;41.97;;;2.20;99.90;;;;;;4998627;28;20042;-36
2021/12/06 06:04:01;;;;;;;83.40;41.50;;;2.20;99.90;;;;;;5013518;28;20057;-37
2021/12/06 06:06:28;;;;;;;83.00;41.60;;;2.20;99.90;;;;;;5004412;28;20489;-37
2021/12/06 06:08:54;;;;;;;81.20;40.27;;;2.20;99.90;;;;;;5017252;28;20462;-37
2021/12/06 06:11:20;;;;;;;82.30;40.67;;;2.20;99.90;;;;;;5015793;28;20159;-36
2021/12/06 06:13:46;;;;;;;87.63;41.30;;;2.20;99.90;;;;;;5016693;28;20233;-37
2021/12/06 06:16:17;;;;;;;85.17;39.97;;;2.20;99.90;;;;;;5002623;28;20441;-36
2021/12/06 06:18:42;;;;;;;79.18;39.45;;;2.20;99.90;;;;;;5016967;28;20041;-37
2021/12/06 06:21:08;;;;;;;83.10;41.03;;;2.20;99.90;;;;;;5013331;28;20115;-37
2021/12/06 06:23:34;;;;;;;76.93;40.43;;;2.10;99.90;;;;;;5013778;28;20095;-37
2021/12/06 06:26:00;;;;;;;84.73;41.77;;;2.20;99.90;;;;;;5016380;28;20599;-37
2021/12/06 06:28:26;;;;;;;86.43;40.83;;;2.20;99.90;;;;;;4995104;28;20061;-37
2021/12/06 06:30:52;;;;;;;83.57;41.53;;;2.20;99.90;;;;;;5002109;28;20038;-37
2021/12/06 06:33:17;;;;;;;89.93;41.37;;;2.20;99.90;;;;;;4982422;28;20564;-37
2021/12/06 06:35:43;;;;;;;91.40;43.37;;;2.20;99.90;;;;;;4993141;28;20133;-37
2021/12/06 06:38:09;;;;;;;89.87;41.73;;;2.10;99.90;;;;;;4979792;28;20039;-37
2021/12/06 06:40:35;;;;;;;85.53;42.00;;;2.20;99.90;;;;;;4989285;28;20044;-36
2021/12/06 06:43:01;;;;;;;82.27;41.27;;;2.10;99.90;;;;;;4990733;28;20050;-36
2021/12/06 06:45:27;;;;;;;79.93;40.57;;;2.10;99.90;;;;;;4990474;28;20081;-37
2021/12/06 06:47:52;;;;;;;81.73;39.90;;;2.20;99.90;;;;;;4980025;28;20050;-37
2021/12/06 06:50:19;;;;;;;73.93;37.57;;;2.20;99.90;;;;;;4990417;28;20046;-36
2021/12/06 06:52:46;;;;;;;70.23;36.10;;;2.20;99.90;;;;;;4999553;28;20143;-34
2021/12/06 06:55:12;;;;;;;82.43;38.83;;;2.20;99.90;;;;;;5007538;28;20121;-38
2021/12/06 06:57:40;;;;;;;79.47;39.40;;;2.20;99.90;;;;;;4998883;28;20541;-37
2021/12/06 07:00:09;;;;;;;77.27;37.57;;;2.20;99.90;;;;;;5013225;28;20051;-36
2021/12/06 07:02:34;;;;;;;81.33;38.33;;;2.20;99.90;;;;;;5006852;28;20053;-36
2021/12/06 07:05:00;;;;;;;77.17;38.13;;;2.20;99.90;;;;;;4991118;28;20054;-36
2021/12/06 07:07:26;;;;;;;79.20;37.20;;;2.20;99.90;;;;;;4984271;28;20041;-36
2021/12/06 07:09:52;;;;;;;78.70;37.97;;;2.20;99.90;;;;;;5001825;28;20572;-37
2021/12/06 07:12:19;;;;;;;80.87;38.07;;;2.20;99.90;;;;;;5004373;28;20092;-37
2021/12/06 07:14:46;;;;;;;75.30;38.13;;;2.20;99.90;;;;;;5016318;28;20358;-36
2021/12/06 07:17:14;;;;;;;79.47;39.27;;;2.20;99.90;;;;;;5003522;28;20045;-36
2021/12/06 07:19:40;;;;;;;76.70;38.30;;;2.20;99.90;;;;;;5014671;28;20069;-36
2021/12/06 07:22:06;;;;;;;77.10;38.23;;;2.20;99.90;;;;;;5015476;28;20061;-36
2021/12/06 07:24:32;;;;;;;75.13;37.13;;;2.20;99.90;;;;;;5017127;28;20084;-37
2021/12/06 07:26:58;;;;;;;70.47;35.47;;;2.20;99.90;;;;;;5002624;28;20061;-37
2021/12/06 07:29:24;;;;;;;75.00;36.60;;;2.20;99.90;;;;;;5002596;28;20041;-36
2021/12/06 07:31:51;;;;;;;70.53;35.33;;;2.20;99.90;;;;;;5000884;28;20038;-37
2021/12/06 07:34:17;;;;;;;64.73;34.87;;;2.20;99.90;;;;;;4999956;28;20050;-36
2021/12/06 07:36:44;;;;;;;67.63;33.53;;;2.20;99.90;;;;;;4988627;28;20551;-35
2021/12/06 07:39:10;;;;;;;73.10;35.67;;;2.20;99.90;;;;;;4996878;28;20478;-37
2021/12/06 07:41:36;;;;;;;68.63;34.37;;;2.20;99.90;;;;;;4997922;28;20357;-37
2021/12/06 07:44:04;;;;;;;69.80;35.43;;;2.20;99.90;;;;;;4994942;28;20052;-36
2021/12/06 07:46:30;;;;;;;66.63;33.40;;;2.20;99.90;;;;;;4985576;28;20484;-37
2021/12/06 07:48:57;;;;;;;67.73;34.47;;;2.20;99.90;;;;;;5008491;28;20744;-37
2021/12/06 07:51:25;;;;;;;65.57;33.43;;;2.20;99.90;;;;;;5012422;28;20452;-37
2021/12/06 07:53:51;;;;;;;67.97;34.67;;;2.20;99.90;;;;;;5002888;28;20046;-37
2021/12/06 07:56:17;;;;;;;72.20;34.87;;;2.20;99.90;;;;;;4986589;28;20099;-38
2021/12/06 07:58:43;;;;;;;67.73;34.50;;;2.30;99.90;;;;;;5010037;28;20181;-37
2021/12/06 08:01:10;;;;;;;69.23;34.67;;;2.20;99.90;;;;;;5015121;28;20392;-37
2021/12/06 08:03:37;;;;;;;70.47;34.40;;;2.20;99.90;;;;;;5000769;28;20049;-37
2021/12/06 08:06:03;;;;;;;77.13;36.23;;;2.20;99.90;;;;;;4994705;28;20038;-36
2021/12/06 08:08:31;;;;;;;73.13;35.80;;;2.20;99.90;;;;;;5015836;28;20038;-37
2021/12/06 08:11:08;;;;;;;76.07;36.30;;;2.20;99.90;;;;;;4996558;28;20046;-37
2021/12/06 08:13:36;;;;;;;72.50;36.57;;;2.20;99.90;;;;;;4996144;28;20041;-38
2021/12/06 08:16:08;;;;;;;80.33;37.60;;;2.20;99.90;;;;;;4991779;28;20141;-36
2021/12/06 08:18:35;;;;;;;76.97;36.70;;;2.20;99.90;;;;;;4988734;28;20081;-37
2021/12/06 08:21:01;;;;;;;73.30;35.77;;;2.20;99.90;;;;;;4995070;28;20060;-37
2021/12/06 08:23:28;;;;;;;70.40;36.03;;;2.20;99.90;;;;;;4992251;28;20085;-36
2021/12/06 08:25:54;;;;;;;81.07;37.90;;;2.30;99.90;;;;;;4992014;28;20049;-36
2021/12/06 08:28:23;;;;;;;78.27;36.80;;;2.20;99.90;;;;;;4983836;28;20373;-36
2021/12/06 08:30:50;;;;;;;77.70;37.20;;;2.30;99.90;;;;;;4998807;28;20706;-37
2021/12/06 08:33:16;;;;;;;85.93;37.67;;;2.30;99.90;;;;;;5015513;28;20140;-37
2021/12/06 08:35:46;;;;;;;83.53;37.93;;;2.40;99.90;;;;;;5017283;28;20130;-36
2021/12/06 08:38:13;;;;;;;80.17;37.80;;;2.20;99.90;;;;;;5006794;28;20120;-37
2021/12/06 08:40:41;;;;;;;85.23;38.27;;;2.30;99.90;;;;;;5016761;28;20065;-37
2021/12/06 08:43:07;;;;;;;84.07;38.00;;;2.40;99.90;;;;;;5013097;28;20501;-37
2021/12/06 08:45:34;;;;;;;78.33;38.10;;;2.30;99.90;;;;;;5012411;28;20116;-37
2021/12/06 08:48:00;;;;;;;80.27;37.53;;;2.30;99.90;;;;;;5003719;28;20084;-34
2021/12/06 08:50:29;;;;;;;80.50;38.30;;;2.30;99.90;;;;;;5016402;28;20056;-36
2021/12/06 08:52:55;;;;;;;81.17;38.60;;;2.30;99.90;;;;;;5013776;28;20555;-37
2021/12/06 08:55:22;;;;;;;87.90;38.27;;;2.30;99.90;;;;;;5016197;28;20083;-34
2021/12/06 08:57:50;;;;;;;85.47;39.80;;;2.30;99.90;;;;;;5003457;28;20404;-37
2021/12/06 09:00:24;;;;;;;76.97;37.50;;;2.30;99.90;;;;;;5020518;28;20132;-37
2021/12/06 09:02:50;;;;;;;81.57;37.73;;;2.30;99.90;;;;;;5017862;28;20042;-37
2021/12/06 09:05:16;;;;;;;78.20;37.40;;;2.30;99.90;;;;;;5021067;28;20041;-36
2021/12/06 09:07:42;;;;;;;84.93;37.00;;;2.30;99.90;;;;;;5005260;28;20053;-37
2021/12/06 09:10:10;;;;;;;78.57;38.47;;;2.40;99.90;;;;;;5018737;28;20049;-36
2021/12/06 09:12:36;;;;;;;79.50;37.20;;;2.30;99.90;;;;;;5016129;28;20425;-37
2021/12/06 09:15:08;;;;;;;81.07;38.53;;;2.30;99.90;;;;;;5004711;28;20744;-37
2021/12/06 09:17:34;;;;;;;82.60;37.73;;;2.30;99.90;;;;;;4991499;28;20496;-36
2021/12/06 09:19:59;;;;;;;82.20;37.83;;;2.30;99.90;;;;;;4996760;28;20050;-37
2021/12/06 09:22:25;;;;;;;83.97;37.87;;;2.30;99.90;;;;;;5000711;28;20056;-37
2021/12/06 09:24:51;;;;;;;81.20;38.63;;;2.30;99.90;;;;;;5016473;28;20496;-37
2021/12/06 09:27:18;;;;;;;78.50;35.80;;;2.40;99.90;;;;;;5004041;28;20466;-36
2021/12/06 09:29:44;;;;;;;79.43;35.90;;;2.40;99.90;;;;;;5004254;28;20128;-37
2021/12/06 09:32:12;;;;;;;74.90;36.20;;;2.40;99.90;;;;;;5003810;28;20133;-37
2021/12/06 09:34:43;;;;;;;78.27;37.13;;;2.40;99.90;;;;;;5016332;28;20152;-37
2021/12/06 09:37:08;;;;;;;56.75;27.70;;;2.40;99.90;;;;;;5005789;28;20381;-37
2021/12/06 09:39:35;;;;;;;79.03;36.10;;;2.40;99.90;;;;;;5019182;28;20496;-37
2021/12/06 09:42:01;;;;;;;76.53;35.03;;;2.40;99.90;;;;;;5021348;28;20523;-37
2021/12/06 09:44:27;;;;;;;64.70;32.77;;;2.50;99.90;;;;;;5016853;28;20073;-37
2021/12/06 09:46:53;;;;;;;61.80;32.27;;;2.40;99.90;;;;;;5006967;28;20080;-36
2021/12/06 09:49:20;;;;;;;68.97;32.83;;;2.50;99.90;;;;;;5003150;28;20082;-37
2021/12/06 09:51:55;;;;;;;67.13;31.83;;;2.40;99.90;;;;;;5002165;28;20497;-37
2021/12/06 09:54:23;;;;;;;57.10;29.77;;;2.50;99.90;;;;;;5002197;28;20077;-36
2021/12/06 09:56:50;;;;;;;51.83;28.30;;;2.50;99.90;;;;;;4991323;28;20052;-36
2021/12/06 09:59:19;;;;;;;59.40;30.07;;;2.50;99.90;;;;;;5002658;28;20045;-37
2021/12/06 10:01:56;;;;;;;58.90;29.67;;;2.50;99.90;;;;;;5002781;28;20437;-37
2021/12/06 10:04:25;;;;;;;59.73;30.00;;;2.50;99.90;;;;;;5013725;28;20570;-36
2021/12/06 10:06:52;;;;;;;54.83;28.93;;;2.50;99.90;;;;;;5005111;28;20072;-36
2021/12/06 10:09:19;;;;;;;57.07;29.93;;;2.50;99.90;;;;;;5012436;28;20167;-37
2021/12/06 10:11:46;;;;;;;53.43;28.67;;;2.50;99.90;;;;;;5018133;28;20386;-37
2021/12/06 10:14:13;;;;;;;53.27;28.73;;;2.50;99.90;;;;;;5016329;28;20555;-37
2021/12/06 10:16:39;;;;;;;53.67;29.07;;;2.50;99.90;;;;;;5003131;28;20045;-37
2021/12/06 10:19:06;;;;;;;56.50;26.97;;;2.60;99.90;;;;;;5010740;28;20515;-36
2021/12/06 10:21:34;;;;;;;52.60;27.73;;;2.60;99.90;;;;;;5015009;28;20478;-37
2021/12/06 10:24:00;;;;;;;56.37;28.67;;;2.60;99.90;;;;;;5016879;28;20164;-36
2021/12/06 10:26:29;;;;;;;51.30;27.37;;;2.60;99.90;;;;;;5001560;28;20576;-36
2021/12/06 10:28:58;;;;;;;50.97;27.27;;;2.60;99.90;;;;;;5014399;28;20076;-36
2021/12/06 10:31:25;;;;;;;56.10;28.10;;;2.50;99.90;;;;;;5014729;28;20085;-38
2021/12/06 10:33:51;;;;;;;56.87;29.03;;;2.70;99.90;;;;;;5005664;28;20053;-36
2021/12/06 10:36:18;;;;;;;55.70;29.37;;;2.60;99.90;;;;;;4992027;28;20049;-37
2021/12/06 10:38:53;;;;;;;50.47;28.33;;;2.60;99.90;;;;;;5002107;28;20084;-36
2021/12/06 10:41:22;;;;;;;55.47;28.77;;;2.60;99.90;;;;;;5002847;28;20320;-37
2021/12/06 10:43:53;;;;;;;56.73;29.77;;;2.60;99.90;;;;;;5009502;28;20081;-36
2021/12/06 10:46:20;;;;;;;56.70;29.20;;;2.60;99.90;;;;;;4999844;28;20068;-37
2021/12/06 10:48:47;;;;;;;54.93;30.40;;;2.60;99.90;;;;;;5009510;28;20428;-37
2021/12/06 10:51:18;;;;;;;63.37;30.97;;;2.60;99.90;;;;;;5015293;28;20076;-37
2021/12/06 10:53:57;;;;;;;49.40;22.75;;;2.60;99.90;;;;;;5017787;28;20497;-36
2021/12/06 10:56:32;;;;;;;60.73;31.03;;;2.60;99.90;;;;;;5005594;28;20042;-37
2021/12/06 10:59:02;;;;;;;52.03;29.37;;;2.60;99.90;;;;;;5001437;28;20069;-37
2021/12/06 11:01:31;;;;;;;52.07;27.80;;;2.60;99.90;;;;;;5033673;28;20077;-36
2021/12/06 11:03:59;;;;;;;49.23;26.63;;;2.60;99.90;;;;;;5011161;28;20493;-37
2021/12/06 11:06:30;;;;;;;49.90;26.67;;;2.60;99.90;;;;;;5005913;28;20500;-37
2021/12/06 11:08:57;;;;;;;;;;;2.60;99.90;;;;;;4997821;28;20088;-37
2021/12/06 11:11:27;;;;;;;51.60;27.50;;;2.60;99.90;;;;;;4998398;28;20355;-36
2021/12/06 11:13:57;;;;;;;53.97;29.70;;;2.60;99.90;;;;;;4994880;28;20565;-36
2021/12/06 11:16:31;;;;;;;54.07;30.10;;;2.60;99.90;;;;;;4985601;28;20475;-37
2021/12/06 11:19:04;;;;;;;56.70;30.17;;;2.60;99.90;;;;;;4992225;28;20049;-36
2021/12/06 11:21:45;;;;;;;61.43;32.13;;;2.60;99.90;;;;;;4993203;28;20065;-36
2021/12/06 11:24:23;;;;;;;61.70;33.47;;;2.60;99.90;;;;;;4993070;28;20097;-37
2021/12/06 11:27:06;;;;;;;78.13;39.60;;;2.60;99.90;;;;;;4982363;28;20145;-36
2021/12/06 11:30:05;;;;;;;82.67;40.73;;;2.60;99.90;;;;;;4995266;28;20422;-37
2021/12/06 11:32:36;;;;;;;74.43;41.03;;;2.60;99.90;;;;;;4994567;28;20692;-36
2021/12/06 11:35:06;;;;;;;61.17;31.80;;;2.60;99.90;;;;;;4990714;28;20052;-37
2021/12/06 11:37:32;;;;;;;80.70;41.13;;;2.60;99.90;;;;;;4981210;28;20038;-36
2021/12/06 11:40:21;;;;;;;82.90;41.23;;;2.50;99.90;;;;;;4997336;28;20477;-37
2021/12/06 11:42:47;;;;;;;74.17;38.53;;;2.50;99.90;;;;;;4997190;28;20054;-37
2021/12/06 11:45:13;;;;;;;68.53;36.67;;;2.60;99.90;;;;;;5014769;28;20060;-37
2021/12/06 11:47:39;;;;;;;72.47;35.70;;;2.60;99.90;;;;;;4999040;28;20050;-36
2021/12/06 11:50:05;;;;;;;65.40;34.70;;;2.60;99.90;;;;;;5002012;28;20038;-37
2021/12/06 11:52:34;;;;;;;65.13;33.67;;;2.60;99.90;;;;;;4999492;28;20153;-37
2021/12/06 11:55:06;;;;;;;54.50;30.27;;;2.60;99.90;;;;;;4990229;28;20042;-36
2021/12/06 11:57:41;;;;;;;55.83;29.90;;;2.60;99.90;;;;;;4980081;28;20426;-37
2021/12/06 12:00:17;;;;;;;50.73;27.70;;;2.70;99.90;;;;;;4990969;28;20062;-37
2021/12/06 12:02:50;;;;;;;51.57;27.03;;;2.70;99.90;;;;;;4990576;28;20177;-37
2021/12/06 12:05:22;;;;;;;50.37;26.50;;;2.70;99.90;;;;;;4991753;28;20092;-38
2021/12/06 12:08:18;;;;;;;51.07;27.17;;;2.70;99.90;;;;;;4979640;28;20069;-37
2021/12/06 12:10:55;;;;;;;49.67;25.70;;;2.70;99.90;;;;;;4989704;28;20613;-37
2021/12/06 12:13:33;;;;;;;45.77;25.50;;;2.70;99.90;;;;;;4995722;28;20092;-34
2021/12/06 12:16:04;;;;;;;47.93;25.87;;;2.80;99.90;;;;;;4992012;28;20094;-37
2021/12/06 12:18:31;;;;;;;;;;;2.80;99.90;;;;;;4985150;28;20748;-36
2021/12/06 12:20:57;;;;;;;40.63;23.10;;;2.80;99.90;;;;;;4996967;28;19929;-36
2021/12/06 12:23:25;;;;;;;42.83;22.80;;;2.80;99.90;;;;;;5005115;28;20037;-36
2021/12/06 12:26:00;;;;;;;41.67;23.40;;;2.70;99.90;;;;;;4992075;28;20453;-37
2021/12/06 12:28:41;;;;;;;41.67;25.13;;;2.70;99.90;;;;;;4983431;28;20483;-36
2021/12/06 12:31:09;;;;;;;41.37;23.40;;;2.80;99.90;;;;;;4996253;28;20308;-36
2021/12/06 12:33:37;;;;;;;44.30;24.27;;;2.70;99.90;;;;;;4992505;28;20054;-37
2021/12/06 12:36:11;;;;;;;41.07;24.23;;;2.70;99.90;;;;;;4994603;28;20073;-37
2021/12/06 12:38:39;;;;;;;50.27;28.10;;;2.70;99.90;;;;;;4991093;28;20058;-37
2021/12/06 12:41:09;;;;;;;48.00;27.23;;;2.80;99.90;;;;;;4995039;28;20035;-36
2021/12/06 12:43:40;;;;;;;49.30;27.90;;;2.80;99.90;;;;;;4973838;28;20754;-37
2021/12/06 12:46:19;;;;;;;46.38;22.67;;;2.80;99.90;;;;;;4991619;28;20540;-37
2021/12/06 12:48:56;;;;;;;53.80;29.73;;;2.70;99.90;;;;;;4994243;28;20046;-37
2021/12/06 12:51:35;;;;;;;54.37;29.67;;;2.80;99.90;;;;;;4993775;28;20046;-37